sensor_id;sensor_type;location;lat;lon;timestamp;P1;durP1;ratioP1;P2;durP2;ratioP2
9860;SDS011;4969;52.304;4.968;2024-03-06T00:01:15;13.75;;;12.45;;
9860;SDS011;4969;52.304;4.968;2024-03-06T00:03:42;13.73;;;12.43;;
9860;SDS011;4969;52.304;4.968;2024-03-06T00:06:09;13.00;;;11.70;;
9860;SDS011;4969;52.304;4.968;2024-03-06T00:08:35;14.20;;;12.82;;
9860;SDS011;4969;52.304;4.968;2024-03-06T00:11:02;14.40;;;12.98;;
9860;SDS011;4969;52.304;4.968;2024-03-06T00:13:29;14.18;;;12.88;;
9860;SDS011;4969;52.304;4.968;2024-03-06T00:15:56;14.73;;;13.32;;
9860;SDS011;4969;52.304;4.968;2024-03-06T00:18:22;13.90;;;12.60;;
9860;SDS011;4969;52.304;4.968;2024-03-06T00:20:50;14.23;;;12.85;;
9860;SDS011;4969;52.304;4.968;2024-03-06T00:23:17;14.15;;;12.82;;
9860;SDS011;4969;52.304;4.968;2024-03-06T00:25:43;14.13;;;12.82;;
9860;SDS011;4969;52.304;4.968;2024-03-06T00:28:10;16.10;;;14.60;;
9860;SDS011;4969;52.304;4.968;2024-03-06T00:30:37;16.15;;;14.52;;
9860;SDS011;4969;52.304;4.968;2024-03-06T00:33:03;16.90;;;15.13;;
9860;SDS011;4969;52.304;4.968;2024-03-06T00:35:30;15.38;;;13.95;;
9860;SDS011;4969;52.304;4.968;2024-03-06T00:37:58;17.67;;;15.98;;
9860;SDS011;4969;52.304;4.968;2024-03-06T00:40:27;16.17;;;14.57;;
9860;SDS011;4969;52.304;4.968;2024-03-06T00:42:55;15.23;;;13.73;;
9860;SDS011;4969;52.304;4.968;2024-03-06T00:45:22;14.25;;;12.98;;
9860;SDS011;4969;52.304;4.968;2024-03-06T00:47:48;15.70;;;14.10;;
9860;SDS011;4969;52.304;4.968;2024-03-06T00:50:15;17.10;;;15.30;;
9860;SDS011;4969;52.304;4.968;2024-03-06T00:52:43;15.77;;;14.25;;
9860;SDS011;4969;52.304;4.968;2024-03-06T00:55:11;16.10;;;14.50;;
9860;SDS011;4969;52.304;4.968;2024-03-06T00:57:38;16.05;;;14.55;;
9860;SDS011;4969;52.304;4.968;2024-03-06T01:00:05;17.20;;;15.50;;
9860;SDS011;4969;52.304;4.968;2024-03-06T01:02:35;18.30;;;16.50;;
9860;SDS011;4969;52.304;4.968;2024-03-06T01:05:02;15.85;;;14.25;;
9860;SDS011;4969;52.304;4.968;2024-03-06T01:07:30;15.85;;;14.38;;
9860;SDS011;4969;52.304;4.968;2024-03-06T01:09:56;16.90;;;15.25;;
9860;SDS011;4969;52.304;4.968;2024-03-06T01:12:24;17.40;;;15.80;;
9860;SDS011;4969;52.304;4.968;2024-03-06T01:14:51;20.63;;;18.65;;
9860;SDS011;4969;52.304;4.968;2024-03-06T01:17:17;18.80;;;16.90;;
9860;SDS011;4969;52.304;4.968;2024-03-06T01:19:44;18.52;;;16.67;;
9860;SDS011;4969;52.304;4.968;2024-03-06T01:22:11;20.63;;;18.42;;
9860;SDS011;4969;52.304;4.968;2024-03-06T01:24:38;18.25;;;16.52;;
9860;SDS011;4969;52.304;4.968;2024-03-06T01:27:05;20.17;;;18.17;;
9860;SDS011;4969;52.304;4.968;2024-03-06T01:29:33;20.73;;;18.67;;
9860;SDS011;4969;52.304;4.968;2024-03-06T01:31:59;21.35;;;19.25;;
9860;SDS011;4969;52.304;4.968;2024-03-06T01:34:27;20.40;;;18.35;;
9860;SDS011;4969;52.304;4.968;2024-03-06T01:36:53;21.75;;;19.63;;
9860;SDS011;4969;52.304;4.968;2024-03-06T01:39:21;21.95;;;19.88;;
9860;SDS011;4969;52.304;4.968;2024-03-06T01:41:48;23.05;;;20.52;;
9860;SDS011;4969;52.304;4.968;2024-03-06T01:44:16;21.05;;;19.05;;
9860;SDS011;4969;52.304;4.968;2024-03-06T01:46:45;21.52;;;19.45;;
9860;SDS011;4969;52.304;4.968;2024-03-06T01:49:12;20.20;;;18.30;;
9860;SDS011;4969;52.304;4.968;2024-03-06T01:51:39;23.40;;;20.98;;
9860;SDS011;4969;52.304;4.968;2024-03-06T01:54:07;21.95;;;19.75;;
9860;SDS011;4969;52.304;4.968;2024-03-06T01:56:35;20.27;;;18.35;;
9860;SDS011;4969;52.304;4.968;2024-03-06T01:59:03;24.23;;;21.92;;
9860;SDS011;4969;52.304;4.968;2024-03-06T02:01:30;22.25;;;20.15;;
9860;SDS011;4969;52.304;4.968;2024-03-06T02:03:59;23.65;;;21.35;;
9860;SDS011;4969;52.304;4.968;2024-03-06T02:06:26;27.90;;;25.00;;
9860;SDS011;4969;52.304;4.968;2024-03-06T02:08:53;27.38;;;24.55;;
9860;SDS011;4969;52.304;4.968;2024-03-06T02:11:20;24.85;;;22.25;;
9860;SDS011;4969;52.304;4.968;2024-03-06T02:13:47;23.35;;;20.85;;
9860;SDS011;4969;52.304;4.968;2024-03-06T02:16:16;25.92;;;23.35;;
9860;SDS011;4969;52.304;4.968;2024-03-06T02:18:50;25.65;;;23.05;;
9860;SDS011;4969;52.304;4.968;2024-03-06T02:21:19;24.63;;;22.08;;
9860;SDS011;4969;52.304;4.968;2024-03-06T02:23:46;23.85;;;21.48;;
9860;SDS011;4969;52.304;4.968;2024-03-06T02:26:12;25.00;;;22.50;;
9860;SDS011;4969;52.304;4.968;2024-03-06T02:28:39;22.92;;;20.65;;
9860;SDS011;4969;52.304;4.968;2024-03-06T02:31:06;23.45;;;21.02;;
9860;SDS011;4969;52.304;4.968;2024-03-06T02:33:32;26.23;;;23.63;;
9860;SDS011;4969;52.304;4.968;2024-03-06T02:35:59;25.50;;;22.95;;
9860;SDS011;4969;52.304;4.968;2024-03-06T02:38:27;25.98;;;23.50;;
9860;SDS011;4969;52.304;4.968;2024-03-06T02:40:54;23.98;;;21.55;;
9860;SDS011;4969;52.304;4.968;2024-03-06T02:43:20;22.83;;;20.70;;
9860;SDS011;4969;52.304;4.968;2024-03-06T02:45:47;24.83;;;22.33;;
9860;SDS011;4969;52.304;4.968;2024-03-06T02:48:13;25.45;;;22.95;;
9860;SDS011;4969;52.304;4.968;2024-03-06T02:50:40;26.52;;;23.83;;
9860;SDS011;4969;52.304;4.968;2024-03-06T02:53:07;27.77;;;25.05;;
9860;SDS011;4969;52.304;4.968;2024-03-06T02:55:34;25.02;;;22.42;;
9860;SDS011;4969;52.304;4.968;2024-03-06T02:58:01;25.02;;;22.45;;
9860;SDS011;4969;52.304;4.968;2024-03-06T03:00:28;25.63;;;23.02;;
9860;SDS011;4969;52.304;4.968;2024-03-06T03:02:56;24.75;;;22.27;;
9860;SDS011;4969;52.304;4.968;2024-03-06T03:05:22;24.45;;;22.13;;
9860;SDS011;4969;52.304;4.968;2024-03-06T03:07:49;23.77;;;21.48;;
9860;SDS011;4969;52.304;4.968;2024-03-06T03:10:16;25.35;;;22.75;;
9860;SDS011;4969;52.304;4.968;2024-03-06T03:12:44;23.98;;;21.52;;
9860;SDS011;4969;52.304;4.968;2024-03-06T03:15:11;26.17;;;23.58;;
9860;SDS011;4969;52.304;4.968;2024-03-06T03:17:37;25.00;;;22.50;;
9860;SDS011;4969;52.304;4.968;2024-03-06T03:20:04;25.42;;;22.92;;
9860;SDS011;4969;52.304;4.968;2024-03-06T03:22:35;24.02;;;21.83;;
9860;SDS011;4969;52.304;4.968;2024-03-06T03:25:01;25.25;;;22.17;;
9860;SDS011;4969;52.304;4.968;2024-03-06T03:27:32;24.60;;;22.15;;
9860;SDS011;4969;52.304;4.968;2024-03-06T03:30:00;25.35;;;22.95;;
9860;SDS011;4969;52.304;4.968;2024-03-06T03:32:27;24.80;;;22.30;;
9860;SDS011;4969;52.304;4.968;2024-03-06T03:34:53;24.25;;;21.55;;
9860;SDS011;4969;52.304;4.968;2024-03-06T03:37:20;22.92;;;20.63;;
9860;SDS011;4969;52.304;4.968;2024-03-06T03:39:47;23.60;;;21.20;;
9860;SDS011;4969;52.304;4.968;2024-03-06T03:42:13;22.65;;;20.55;;
9860;SDS011;4969;52.304;4.968;2024-03-06T03:44:40;23.10;;;20.83;;
9860;SDS011;4969;52.304;4.968;2024-03-06T03:47:08;25.10;;;22.60;;
9860;SDS011;4969;52.304;4.968;2024-03-06T03:49:35;24.05;;;21.85;;
9860;SDS011;4969;52.304;4.968;2024-03-06T03:52:02;23.27;;;20.98;;
9860;SDS011;4969;52.304;4.968;2024-03-06T03:54:29;22.70;;;20.50;;
9860;SDS011;4969;52.304;4.968;2024-03-06T03:56:55;23.35;;;21.15;;
9860;SDS011;4969;52.304;4.968;2024-03-06T03:59:24;24.05;;;21.73;;
9860;SDS011;4969;52.304;4.968;2024-03-06T04:01:50;21.80;;;19.80;;
9860;SDS011;4969;52.304;4.968;2024-03-06T04:04:18;22.75;;;20.55;;
9860;SDS011;4969;52.304;4.968;2024-03-06T04:06:46;22.40;;;20.30;;
9860;SDS011;4969;52.304;4.968;2024-03-06T04:09:13;24.23;;;21.88;;
9860;SDS011;4969;52.304;4.968;2024-03-06T04:11:40;22.80;;;20.60;;
9860;SDS011;4969;52.304;4.968;2024-03-06T04:14:06;20.95;;;18.85;;
9860;SDS011;4969;52.304;4.968;2024-03-06T04:16:33;19.38;;;17.52;;
9860;SDS011;4969;52.304;4.968;2024-03-06T04:19:00;20.35;;;18.42;;
9860;SDS011;4969;52.304;4.968;2024-03-06T04:21:28;24.30;;;21.85;;
9860;SDS011;4969;52.304;4.968;2024-03-06T04:23:55;23.15;;;20.95;;
9860;SDS011;4969;52.304;4.968;2024-03-06T04:26:23;22.85;;;20.65;;
9860;SDS011;4969;52.304;4.968;2024-03-06T04:28:49;21.00;;;18.88;;
9860;SDS011;4969;52.304;4.968;2024-03-06T04:31:16;19.83;;;18.02;;
9860;SDS011;4969;52.304;4.968;2024-03-06T04:33:43;22.15;;;20.13;;
9860;SDS011;4969;52.304;4.968;2024-03-06T04:36:09;21.42;;;19.45;;
9860;SDS011;4969;52.304;4.968;2024-03-06T04:38:37;21.48;;;19.38;;
9860;SDS011;4969;52.304;4.968;2024-03-06T04:41:05;21.48;;;19.38;;
9860;SDS011;4969;52.304;4.968;2024-03-06T04:43:31;21.60;;;19.60;;
9860;SDS011;4969;52.304;4.968;2024-03-06T04:45:58;19.98;;;18.17;;
9860;SDS011;4969;52.304;4.968;2024-03-06T04:48:24;21.48;;;19.48;;
9860;SDS011;4969;52.304;4.968;2024-03-06T04:50:51;21.35;;;19.25;;
9860;SDS011;4969;52.304;4.968;2024-03-06T04:53:18;22.50;;;20.48;;
9860;SDS011;4969;52.304;4.968;2024-03-06T04:55:47;21.67;;;19.63;;
9860;SDS011;4969;52.304;4.968;2024-03-06T04:58:13;21.27;;;19.27;;
9860;SDS011;4969;52.304;4.968;2024-03-06T05:00:40;20.92;;;19.02;;
9860;SDS011;4969;52.304;4.968;2024-03-06T05:03:06;20.67;;;18.67;;
9860;SDS011;4969;52.304;4.968;2024-03-06T05:05:33;20.90;;;19.02;;
9860;SDS011;4969;52.304;4.968;2024-03-06T05:08:00;21.67;;;19.58;;
9860;SDS011;4969;52.304;4.968;2024-03-06T05:10:26;22.58;;;20.48;;
9860;SDS011;4969;52.304;4.968;2024-03-06T05:12:54;22.08;;;19.90;;
9860;SDS011;4969;52.304;4.968;2024-03-06T05:15:21;20.65;;;18.67;;
9860;SDS011;4969;52.304;4.968;2024-03-06T05:17:47;21.92;;;19.92;;
9860;SDS011;4969;52.304;4.968;2024-03-06T05:20:14;20.98;;;19.08;;
9860;SDS011;4969;52.304;4.968;2024-03-06T05:22:41;20.40;;;18.48;;
9860;SDS011;4969;52.304;4.968;2024-03-06T05:25:08;20.85;;;18.90;;
9860;SDS011;4969;52.304;4.968;2024-03-06T05:27:35;20.33;;;18.42;;
9860;SDS011;4969;52.304;4.968;2024-03-06T05:30:03;20.13;;;18.30;;
9860;SDS011;4969;52.304;4.968;2024-03-06T05:32:31;21.42;;;19.42;;
9860;SDS011;4969;52.304;4.968;2024-03-06T05:34:57;23.00;;;20.98;;
9860;SDS011;4969;52.304;4.968;2024-03-06T05:37:24;21.92;;;20.02;;
9860;SDS011;4969;52.304;4.968;2024-03-06T05:39:51;24.10;;;21.88;;
9860;SDS011;4969;52.304;4.968;2024-03-06T05:42:17;23.77;;;21.48;;
9860;SDS011;4969;52.304;4.968;2024-03-06T05:44:44;22.55;;;20.58;;
9860;SDS011;4969;52.304;4.968;2024-03-06T05:47:13;25.63;;;23.17;;
9860;SDS011;4969;52.304;4.968;2024-03-06T05:49:39;22.70;;;20.60;;
9860;SDS011;4969;52.304;4.968;2024-03-06T05:52:06;23.75;;;21.55;;
9860;SDS011;4969;52.304;4.968;2024-03-06T05:54:32;23.25;;;21.13;;
9860;SDS011;4969;52.304;4.968;2024-03-06T05:57:00;20.90;;;18.95;;
9860;SDS011;4969;52.304;4.968;2024-03-06T05:59:28;23.35;;;21.15;;
9860;SDS011;4969;52.304;4.968;2024-03-06T06:01:54;19.92;;;18.13;;
9860;SDS011;4969;52.304;4.968;2024-03-06T06:04:22;23.55;;;21.38;;
9860;SDS011;4969;52.304;4.968;2024-03-06T06:06:49;20.70;;;18.60;;
9860;SDS011;4969;52.304;4.968;2024-03-06T06:09:15;18.98;;;17.05;;
9860;SDS011;4969;52.304;4.968;2024-03-06T06:11:42;23.73;;;21.45;;
9860;SDS011;4969;52.304;4.968;2024-03-06T06:14:09;21.60;;;19.63;;
9860;SDS011;4969;52.304;4.968;2024-03-06T06:16:37;20.83;;;18.83;;
9860;SDS011;4969;52.304;4.968;2024-03-06T06:19:05;21.90;;;19.88;;
9860;SDS011;4969;52.304;4.968;2024-03-06T06:21:34;18.83;;;17.08;;
9860;SDS011;4969;52.304;4.968;2024-03-06T06:24:01;20.52;;;18.67;;
9860;SDS011;4969;52.304;4.968;2024-03-06T06:26:28;19.05;;;17.30;;
9860;SDS011;4969;52.304;4.968;2024-03-06T06:28:55;19.98;;;18.08;;
9860;SDS011;4969;52.304;4.968;2024-03-06T06:31:22;20.77;;;18.90;;
9860;SDS011;4969;52.304;4.968;2024-03-06T06:33:50;21.90;;;19.73;;
9860;SDS011;4969;52.304;4.968;2024-03-06T06:36:17;23.08;;;20.85;;
9860;SDS011;4969;52.304;4.968;2024-03-06T06:38:45;23.90;;;21.60;;
9860;SDS011;4969;52.304;4.968;2024-03-06T06:41:12;21.05;;;19.02;;
9860;SDS011;4969;52.304;4.968;2024-03-06T06:43:39;21.50;;;19.55;;
9860;SDS011;4969;52.304;4.968;2024-03-06T06:46:06;22.10;;;20.13;;
9860;SDS011;4969;52.304;4.968;2024-03-06T06:48:33;23.65;;;21.35;;
9860;SDS011;4969;52.304;4.968;2024-03-06T06:50:59;22.20;;;20.17;;
9860;SDS011;4969;52.304;4.968;2024-03-06T06:53:27;23.02;;;20.85;;
9860;SDS011;4969;52.304;4.968;2024-03-06T06:55:55;25.33;;;22.92;;
9860;SDS011;4969;52.304;4.968;2024-03-06T06:58:22;24.02;;;21.80;;
9860;SDS011;4969;52.304;4.968;2024-03-06T07:00:49;24.70;;;22.38;;
9860;SDS011;4969;52.304;4.968;2024-03-06T07:03:15;24.15;;;21.77;;
9860;SDS011;4969;52.304;4.968;2024-03-06T07:05:42;23.80;;;21.60;;
9860;SDS011;4969;52.304;4.968;2024-03-06T07:08:08;24.85;;;22.58;;
9860;SDS011;4969;52.304;4.968;2024-03-06T07:10:35;23.23;;;20.90;;
9860;SDS011;4969;52.304;4.968;2024-03-06T07:13:03;26.13;;;23.67;;
9860;SDS011;4969;52.304;4.968;2024-03-06T07:15:31;22.92;;;20.73;;
9860;SDS011;4969;52.304;4.968;2024-03-06T07:17:57;26.85;;;24.15;;
9860;SDS011;4969;52.304;4.968;2024-03-06T07:20:24;25.67;;;23.27;;
9860;SDS011;4969;52.304;4.968;2024-03-06T07:22:50;27.23;;;24.70;;
9860;SDS011;4969;52.304;4.968;2024-03-06T07:25:17;25.50;;;23.05;;
9860;SDS011;4969;52.304;4.968;2024-03-06T07:27:43;24.65;;;22.45;;
9860;SDS011;4969;52.304;4.968;2024-03-06T07:30:12;25.35;;;22.90;;
9860;SDS011;4969;52.304;4.968;2024-03-06T07:32:39;27.00;;;24.40;;
9860;SDS011;4969;52.304;4.968;2024-03-06T07:35:06;28.40;;;25.60;;
9860;SDS011;4969;52.304;4.968;2024-03-06T07:37:33;28.73;;;25.85;;
9860;SDS011;4969;52.304;4.968;2024-03-06T07:40:00;22.15;;;20.05;;
9860;SDS011;4969;52.304;4.968;2024-03-06T07:42:26;23.02;;;20.90;;
9860;SDS011;4969;52.304;4.968;2024-03-06T07:44:53;24.85;;;22.55;;
9860;SDS011;4969;52.304;4.968;2024-03-06T07:47:21;21.70;;;19.52;;
9860;SDS011;4969;52.304;4.968;2024-03-06T07:49:47;24.90;;;22.65;;
9860;SDS011;4969;52.304;4.968;2024-03-06T07:52:15;27.00;;;24.35;;
9860;SDS011;4969;52.304;4.968;2024-03-06T07:54:42;28.48;;;25.63;;
9860;SDS011;4969;52.304;4.968;2024-03-06T07:57:08;24.77;;;22.40;;
9860;SDS011;4969;52.304;4.968;2024-03-06T07:59:35;25.92;;;23.25;;
9860;SDS011;4969;52.304;4.968;2024-03-06T08:02:02;23.27;;;21.15;;
9860;SDS011;4969;52.304;4.968;2024-03-06T08:04:31;27.85;;;25.15;;
9860;SDS011;4969;52.304;4.968;2024-03-06T08:06:57;27.02;;;24.42;;
9860;SDS011;4969;52.304;4.968;2024-03-06T08:09:24;27.58;;;25.02;;
9860;SDS011;4969;52.304;4.968;2024-03-06T08:11:53;25.38;;;22.98;;
9860;SDS011;4969;52.304;4.968;2024-03-06T08:14:20;25.63;;;23.23;;
9860;SDS011;4969;52.304;4.968;2024-03-06T08:16:47;26.58;;;23.88;;
9860;SDS011;4969;52.304;4.968;2024-03-06T08:19:13;24.95;;;22.63;;
9860;SDS011;4969;52.304;4.968;2024-03-06T08:21:41;26.35;;;23.77;;
9860;SDS011;4969;52.304;4.968;2024-03-06T08:24:08;28.33;;;25.63;;
9860;SDS011;4969;52.304;4.968;2024-03-06T08:26:35;25.13;;;22.70;;
9860;SDS011;4969;52.304;4.968;2024-03-06T08:29:02;26.60;;;24.00;;
9860;SDS011;4969;52.304;4.968;2024-03-06T08:31:29;23.92;;;21.48;;
9860;SDS011;4969;52.304;4.968;2024-03-06T08:33:56;27.20;;;24.60;;
9860;SDS011;4969;52.304;4.968;2024-03-06T08:36:23;26.63;;;24.08;;
9860;SDS011;4969;52.304;4.968;2024-03-06T08:38:51;22.80;;;20.67;;
9860;SDS011;4969;52.304;4.968;2024-03-06T08:41:18;23.45;;;21.25;;
9860;SDS011;4969;52.304;4.968;2024-03-06T08:43:45;20.38;;;18.58;;
9860;SDS011;4969;52.304;4.968;2024-03-06T08:46:11;24.13;;;21.90;;
9860;SDS011;4969;52.304;4.968;2024-03-06T08:48:38;22.58;;;20.50;;
9860;SDS011;4969;52.304;4.968;2024-03-06T08:51:05;21.98;;;19.83;;
9860;SDS011;4969;52.304;4.968;2024-03-06T08:53:35;22.02;;;19.92;;
9860;SDS011;4969;52.304;4.968;2024-03-06T08:56:04;20.30;;;18.45;;
9860;SDS011;4969;52.304;4.968;2024-03-06T08:58:31;21.42;;;19.52;;
9860;SDS011;4969;52.304;4.968;2024-03-06T09:00:58;21.40;;;19.50;;
9860;SDS011;4969;52.304;4.968;2024-03-06T09:03:25;20.60;;;18.70;;
9860;SDS011;4969;52.304;4.968;2024-03-06T09:05:51;21.08;;;19.13;;
9860;SDS011;4969;52.304;4.968;2024-03-06T09:08:18;20.77;;;18.88;;
9860;SDS011;4969;52.304;4.968;2024-03-06T09:10:45;22.65;;;20.58;;
9860;SDS011;4969;52.304;4.968;2024-03-06T09:13:12;23.30;;;21.10;;
9860;SDS011;4969;52.304;4.968;2024-03-06T09:15:39;21.98;;;19.92;;
9860;SDS011;4969;52.304;4.968;2024-03-06T09:18:06;23.40;;;21.10;;
9860;SDS011;4969;52.304;4.968;2024-03-06T09:20:32;22.08;;;20.08;;
9860;SDS011;4969;52.304;4.968;2024-03-06T09:22:59;22.95;;;20.85;;
9860;SDS011;4969;52.304;4.968;2024-03-06T09:25:25;20.48;;;18.58;;
9860;SDS011;4969;52.304;4.968;2024-03-06T09:27:52;20.20;;;18.30;;
9860;SDS011;4969;52.304;4.968;2024-03-06T09:30:20;22.65;;;20.63;;
9860;SDS011;4969;52.304;4.968;2024-03-06T09:32:46;20.38;;;18.50;;
9860;SDS011;4969;52.304;4.968;2024-03-06T09:35:13;25.27;;;22.65;;
9860;SDS011;4969;52.304;4.968;2024-03-06T09:37:42;24.48;;;22.25;;
9860;SDS011;4969;52.304;4.968;2024-03-06T09:40:11;23.10;;;20.90;;
9860;SDS011;4969;52.304;4.968;2024-03-06T09:42:46;21.38;;;19.35;;
9860;SDS011;4969;52.304;4.968;2024-03-06T09:45:13;18.77;;;17.10;;
9860;SDS011;4969;52.304;4.968;2024-03-06T09:47:40;20.83;;;18.73;;
9860;SDS011;4969;52.304;4.968;2024-03-06T09:50:09;18.30;;;16.65;;
9860;SDS011;4969;52.304;4.968;2024-03-06T09:52:36;18.83;;;17.23;;
9860;SDS011;4969;52.304;4.968;2024-03-06T09:55:05;19.10;;;17.48;;
9860;SDS011;4969;52.304;4.968;2024-03-06T09:57:34;19.55;;;17.75;;
9860;SDS011;4969;52.304;4.968;2024-03-06T10:00:01;18.75;;;17.08;;
9860;SDS011;4969;52.304;4.968;2024-03-06T10:02:34;21.38;;;19.38;;
9860;SDS011;4969;52.304;4.968;2024-03-06T10:05:05;19.60;;;17.75;;
9860;SDS011;4969;52.304;4.968;2024-03-06T10:07:46;18.20;;;16.65;;
9860;SDS011;4969;52.304;4.968;2024-03-06T10:10:14;20.02;;;18.13;;
9860;SDS011;4969;52.304;4.968;2024-03-06T10:12:41;19.52;;;17.83;;
9860;SDS011;4969;52.304;4.968;2024-03-06T10:15:08;19.63;;;17.73;;
9860;SDS011;4969;52.304;4.968;2024-03-06T10:17:37;19.85;;;18.05;;
9860;SDS011;4969;52.304;4.968;2024-03-06T10:20:14;17.83;;;16.23;;
9860;SDS011;4969;52.304;4.968;2024-03-06T10:22:44;19.95;;;18.15;;
9860;SDS011;4969;52.304;4.968;2024-03-06T10:25:11;16.88;;;15.38;;
9860;SDS011;4969;52.304;4.968;2024-03-06T10:27:37;21.63;;;19.73;;
9860;SDS011;4969;52.304;4.968;2024-03-06T10:30:07;19.17;;;17.30;;
9860;SDS011;4969;52.304;4.968;2024-03-06T10:32:36;18.27;;;16.48;;
9860;SDS011;4969;52.304;4.968;2024-03-06T10:35:03;17.50;;;15.77;;
9860;SDS011;4969;52.304;4.968;2024-03-06T10:37:32;16.48;;;14.98;;
9860;SDS011;4969;52.304;4.968;2024-03-06T10:40:01;17.58;;;15.85;;
9860;SDS011;4969;52.304;4.968;2024-03-06T10:42:31;16.58;;;15.07;;
9860;SDS011;4969;52.304;4.968;2024-03-06T10:44:59;18.83;;;16.92;;
9860;SDS011;4969;52.304;4.968;2024-03-06T10:47:27;17.10;;;15.50;;
9860;SDS011;4969;52.304;4.968;2024-03-06T10:49:54;17.25;;;15.65;;
9860;SDS011;4969;52.304;4.968;2024-03-06T10:52:25;18.15;;;16.55;;
9860;SDS011;4969;52.304;4.968;2024-03-06T10:54:55;16.13;;;14.65;;
9860;SDS011;4969;52.304;4.968;2024-03-06T10:57:24;13.93;;;12.63;;
9860;SDS011;4969;52.304;4.968;2024-03-06T10:59:52;15.18;;;13.80;;
9860;SDS011;4969;52.304;4.968;2024-03-06T11:02:19;18.30;;;16.65;;
9860;SDS011;4969;52.304;4.968;2024-03-06T11:04:47;18.15;;;16.58;;
9860;SDS011;4969;52.304;4.968;2024-03-06T11:07:14;16.48;;;14.95;;
9860;SDS011;4969;52.304;4.968;2024-03-06T11:09:41;15.95;;;14.55;;
9860;SDS011;4969;52.304;4.968;2024-03-06T11:12:09;16.50;;;14.90;;
9860;SDS011;4969;52.304;4.968;2024-03-06T11:14:36;15.10;;;13.75;;
9860;SDS011;4969;52.304;4.968;2024-03-06T11:17:04;13.02;;;12.00;;
9860;SDS011;4969;52.304;4.968;2024-03-06T11:20:07;12.77;;;11.65;;
9860;SDS011;4969;52.304;4.968;2024-03-06T11:28:30;13.13;;;11.93;;
9860;SDS011;4969;52.304;4.968;2024-03-06T11:30:59;16.00;;;14.70;;
9860;SDS011;4969;52.304;4.968;2024-03-06T11:33:36;16.63;;;15.13;;
9860;SDS011;4969;52.304;4.968;2024-03-06T11:36:14;17.45;;;15.95;;
9860;SDS011;4969;52.304;4.968;2024-03-06T11:38:42;19.60;;;17.88;;
9860;SDS011;4969;52.304;4.968;2024-03-06T11:41:12;15.88;;;14.48;;
9860;SDS011;4969;52.304;4.968;2024-03-06T11:43:43;16.45;;;15.02;;
9860;SDS011;4969;52.304;4.968;2024-03-06T11:46:15;13.85;;;12.63;;
9860;SDS011;4969;52.304;4.968;2024-03-06T11:48:53;14.48;;;13.18;;
9860;SDS011;4969;52.304;4.968;2024-03-06T11:51:21;13.65;;;12.50;;
9860;SDS011;4969;52.304;4.968;2024-03-06T11:53:51;13.65;;;12.25;;
9860;SDS011;4969;52.304;4.968;2024-03-06T11:56:18;11.25;;;10.27;;
9860;SDS011;4969;52.304;4.968;2024-03-06T11:58:47;10.75;;;9.77;;
9860;SDS011;4969;52.304;4.968;2024-03-06T12:01:14;11.40;;;10.50;;
9860;SDS011;4969;52.304;4.968;2024-03-06T12:03:41;8.32;;;7.57;;
9860;SDS011;4969;52.304;4.968;2024-03-06T12:06:08;11.77;;;10.68;;
9860;SDS011;4969;52.304;4.968;2024-03-06T12:08:35;9.93;;;9.02;;
9860;SDS011;4969;52.304;4.968;2024-03-06T12:11:02;10.55;;;9.73;;
9860;SDS011;4969;52.304;4.968;2024-03-06T12:13:29;8.45;;;7.55;;
9860;SDS011;4969;52.304;4.968;2024-03-06T12:15:57;8.95;;;8.15;;
9860;SDS011;4969;52.304;4.968;2024-03-06T12:18:24;8.63;;;7.72;;
9860;SDS011;4969;52.304;4.968;2024-03-06T12:20:51;7.30;;;6.70;;
9860;SDS011;4969;52.304;4.968;2024-03-06T12:23:20;6.20;;;5.63;;
9860;SDS011;4969;52.304;4.968;2024-03-06T12:25:48;7.10;;;6.50;;
9860;SDS011;4969;52.304;4.968;2024-03-06T12:28:15;7.03;;;6.32;;
9860;SDS011;4969;52.304;4.968;2024-03-06T12:30:43;5.43;;;4.93;;
9860;SDS011;4969;52.304;4.968;2024-03-06T12:33:11;5.45;;;4.95;;
9860;SDS011;4969;52.304;4.968;2024-03-06T12:35:42;5.30;;;4.80;;
9860;SDS011;4969;52.304;4.968;2024-03-06T12:38:12;4.80;;;4.30;;
9860;SDS011;4969;52.304;4.968;2024-03-06T12:40:39;3.17;;;2.80;;
9860;SDS011;4969;52.304;4.968;2024-03-06T12:43:06;4.63;;;4.20;;
9860;SDS011;4969;52.304;4.968;2024-03-06T12:45:33;4.45;;;3.85;;
9860;SDS011;4969;52.304;4.968;2024-03-06T12:48:00;3.75;;;3.38;;
9860;SDS011;4969;52.304;4.968;2024-03-06T12:50:28;4.70;;;4.30;;
9860;SDS011;4969;52.304;4.968;2024-03-06T12:52:54;4.68;;;4.00;;
9860;SDS011;4969;52.304;4.968;2024-03-06T12:55:21;4.05;;;3.75;;
9860;SDS011;4969;52.304;4.968;2024-03-06T12:57:48;4.32;;;3.60;;
9860;SDS011;4969;52.304;4.968;2024-03-06T13:00:16;3.85;;;3.42;;
9860;SDS011;4969;52.304;4.968;2024-03-06T13:02:43;3.80;;;3.35;;
9860;SDS011;4969;52.304;4.968;2024-03-06T13:05:10;4.88;;;3.53;;
9860;SDS011;4969;52.304;4.968;2024-03-06T13:07:39;4.30;;;4.00;;
9860;SDS011;4969;52.304;4.968;2024-03-06T13:10:07;4.95;;;4.38;;
9860;SDS011;4969;52.304;4.968;2024-03-06T13:12:35;3.65;;;3.42;;
9860;SDS011;4969;52.304;4.968;2024-03-06T13:15:02;4.18;;;3.80;;
9860;SDS011;4969;52.304;4.968;2024-03-06T13:17:29;4.72;;;4.35;;
9860;SDS011;4969;52.304;4.968;2024-03-06T13:19:56;5.78;;;5.13;;
9860;SDS011;4969;52.304;4.968;2024-03-06T13:22:22;5.78;;;5.28;;
9860;SDS011;4969;52.304;4.968;2024-03-06T13:24:50;5.55;;;5.10;;
9860;SDS011;4969;52.304;4.968;2024-03-06T13:27:18;5.85;;;5.35;;
9860;SDS011;4969;52.304;4.968;2024-03-06T13:29:45;5.88;;;5.28;;
9860;SDS011;4969;52.304;4.968;2024-03-06T13:32:11;6.63;;;6.03;;
9860;SDS011;4969;52.304;4.968;2024-03-06T13:34:38;7.10;;;6.45;;
9860;SDS011;4969;52.304;4.968;2024-03-06T13:37:04;8.10;;;7.28;;
9860;SDS011;4969;52.304;4.968;2024-03-06T13:39:35;6.80;;;6.15;;
9860;SDS011;4969;52.304;4.968;2024-03-06T13:42:03;7.43;;;6.72;;
9860;SDS011;4969;52.304;4.968;2024-03-06T13:44:31;6.75;;;6.05;;
9860;SDS011;4969;52.304;4.968;2024-03-06T13:46:58;7.28;;;6.57;;
9860;SDS011;4969;52.304;4.968;2024-03-06T13:49:34;7.05;;;6.40;;
9860;SDS011;4969;52.304;4.968;2024-03-06T13:52:02;6.38;;;5.88;;
9860;SDS011;4969;52.304;4.968;2024-03-06T13:54:30;6.32;;;5.72;;
9860;SDS011;4969;52.304;4.968;2024-03-06T13:56:57;5.75;;;5.25;;
9860;SDS011;4969;52.304;4.968;2024-03-06T13:59:28;6.32;;;5.72;;
9860;SDS011;4969;52.304;4.968;2024-03-06T14:01:55;6.70;;;6.20;;
9860;SDS011;4969;52.304;4.968;2024-03-06T14:04:24;6.72;;;6.07;;
9860;SDS011;4969;52.304;4.968;2024-03-06T14:06:50;6.47;;;5.88;;
9860;SDS011;4969;52.304;4.968;2024-03-06T14:09:17;6.50;;;5.93;;
9860;SDS011;4969;52.304;4.968;2024-03-06T14:11:44;5.55;;;5.03;;
9860;SDS011;4969;52.304;4.968;2024-03-06T14:14:11;5.90;;;5.40;;
9860;SDS011;4969;52.304;4.968;2024-03-06T14:16:39;5.07;;;4.55;;
9860;SDS011;4969;52.304;4.968;2024-03-06T14:19:07;5.05;;;4.50;;
9860;SDS011;4969;52.304;4.968;2024-03-06T14:21:34;4.78;;;4.38;;
9860;SDS011;4969;52.304;4.968;2024-03-06T14:24:01;5.90;;;5.40;;
9860;SDS011;4969;52.304;4.968;2024-03-06T14:26:29;6.45;;;5.95;;
9860;SDS011;4969;52.304;4.968;2024-03-06T14:28:55;6.47;;;5.97;;
9860;SDS011;4969;52.304;4.968;2024-03-06T14:31:22;6.63;;;6.03;;
9860;SDS011;4969;52.304;4.968;2024-03-06T14:33:55;6.88;;;6.28;;
9860;SDS011;4969;52.304;4.968;2024-03-06T14:36:25;6.07;;;5.60;;
9860;SDS011;4969;52.304;4.968;2024-03-06T14:38:52;6.03;;;5.50;;
9860;SDS011;4969;52.304;4.968;2024-03-06T14:41:23;5.47;;;5.07;;
9860;SDS011;4969;52.304;4.968;2024-03-06T14:43:53;5.25;;;4.75;;
9860;SDS011;4969;52.304;4.968;2024-03-06T14:46:24;8.65;;;6.00;;
9860;SDS011;4969;52.304;4.968;2024-03-06T14:48:51;6.40;;;5.80;;
9860;SDS011;4969;52.304;4.968;2024-03-06T14:51:24;6.13;;;5.63;;
9860;SDS011;4969;52.304;4.968;2024-03-06T14:53:52;6.38;;;5.80;;
9860;SDS011;4969;52.304;4.968;2024-03-06T14:56:23;6.20;;;5.70;;
9860;SDS011;4969;52.304;4.968;2024-03-06T14:58:53;5.88;;;5.43;;
9860;SDS011;4969;52.304;4.968;2024-03-06T15:01:23;4.88;;;4.47;;